Time;durP1;ratioP1;P1;durP2;ratioP2;P2;SDS_P1;SDS_P2;PMS_P1;PMS_P2;Temp;Humidity;BMP_temperature;BMP_pressure;BME280_temperature;BME280_humidity;BME280_pressure;Samples;Min_cycle;Max_cycle;Signal;HPM_P1;HPM_P2
2024/04/11 00:00:54;;;;;;;;;;;;;;;20.64;49.49;102630.94;2215035;26;5899;-67
2024/04/11 00:01:56;;;;;;;;;;;;;;;20.63;49.68;102635.16;2220123;26;2355;-67
2024/04/11 00:02:58;;;;;;;;;;;;;;;20.64;49.70;102633.81;2217637;26;2478;-68
2024/04/11 00:04:00;;;;;;;;;;;;;;;20.63;49.51;102635.91;2225175;26;2282;-68
2024/04/11 00:05:03;;;;;;;;;;;;;;;20.64;49.74;102636.69;2216756;26;2377;-68
2024/04/11 00:06:04;;;;;;;;;;;;;;;20.64;49.31;102643.22;2219970;26;2468;-67
2024/04/11 00:07:06;;;;;;;;;;;;;;;20.64;49.57;102636.69;2222565;26;2618;-67
2024/04/11 00:08:07;;;;;;;;;;;;;;;20.64;49.51;102636.69;2220596;26;2179;-68
2024/04/11 00:09:09;;;;;;;;;;;;;;;20.62;49.23;102640.19;2221168;26;2321;-68
2024/04/11 00:10:12;;;;;;;;;;;;;;;20.63;49.53;102640.94;2220945;26;2127;-68
2024/04/11 00:11:14;;;;;;;;;;;;;;;20.63;49.65;102640.94;2219768;26;2367;-68
2024/04/11 00:12:15;;;;;;;;;;;;;;;20.61;49.55;102638.66;2219011;26;2602;-68
2024/04/11 00:13:20;;;;;;;;;;;;;;;20.62;49.52;102639.44;2220681;26;2375;-68
2024/04/11 00:14:21;;;;;;;;;;;;;;;20.60;49.42;102634.25;2221449;26;2394;-68
2024/04/11 00:15:23;;;;;;;;;;;;;;;20.61;49.70;102644.41;2218908;26;2428;-67
2024/04/11 00:16:25;;;;;;;;;;;;;;;20.62;49.67;102639.44;2223177;26;2168;-68
2024/04/11 00:17:26;;;;;;;;;;;;;;;20.62;49.44;102636.53;2220616;26;2427;-68
2024/04/11 00:18:28;;;;;;;;;;;;;;;20.62;49.53;102639.44;2220403;26;2375;-67
2024/04/11 00:19:29;;;;;;;;;;;;;;;20.61;49.79;102647.28;2228556;26;2345;-67
2024/04/11 00:20:31;;;;;;;;;;;;;;;20.62;49.31;102639.44;2219134;26;2387;-67
2024/04/11 00:21:33;;;;;;;;;;;;;;;20.61;49.84;102640.78;2219810;26;2497;-67
2024/04/11 00:22:34;;;;;;;;;;;;;;;20.59;49.66;102629.09;2214671;26;2174;-67
2024/04/11 00:23:36;;;;;;;;;;;;;;;20.59;49.79;102635.66;2220438;26;2425;-67
2024/04/11 00:24:38;;;;;;;;;;;;;;;20.60;49.41;102633.50;2216239;26;2382;-67
2024/04/11 00:25:41;;;;;;;;;;;;;;;20.60;49.93;102637.16;2222309;26;2144;-68
2024/04/11 00:26:45;;;;;;;;;;;;;;;20.59;49.27;102634.88;2223666;26;2293;-68
2024/04/11 00:27:47;;;;;;;;;;;;;;;20.59;49.61;102629.88;2220887;26;2358;-68
2024/04/11 00:28:49;;;;;;;;;;;;;;;20.59;49.77;102623.34;2223926;26;2466;-68
2024/04/11 00:29:50;;;;;;;;;;;;;;;20.59;49.92;102637.75;2219696;26;2359;-68
2024/04/11 00:30:52;;;;;;;;;;;;;;;20.59;49.65;102631.97;2219362;26;5810;-67
2024/04/11 00:31:54;;;;;;;;;;;;;;;20.58;49.29;102625.47;2216963;26;2412;-68
2024/04/11 00:32:57;;;;;;;;;;;;;;;20.58;49.70;102630.47;2219684;26;2379;-67
2024/04/11 00:34:13;;;;;;;;;;;;;;;20.59;49.33;102634.88;2217057;26;2395;-68
2024/04/11 00:35:18;;;;;;;;;;;;;;;20.58;49.50;102637.00;2219473;26;2334;-68
2024/04/11 00:36:23;;;;;;;;;;;;;;;20.58;49.70;102633.38;2219746;26;2438;-67
2024/04/11 00:37:25;;;;;;;;;;;;;;;20.58;49.91;102639.13;2221217;26;2406;-68
2024/04/11 00:38:27;;;;;;;;;;;;;;;20.58;49.52;102639.13;2223496;26;2367;-68
2024/04/11 00:39:30;;;;;;;;;;;;;;;20.58;49.81;102636.25;2221532;26;2142;-67
2024/04/11 00:40:31;;;;;;;;;;;;;;;20.58;49.46;102636.25;2221577;26;2391;-68
2024/04/11 00:41:33;;;;;;;;;;;;;;;20.57;49.75;102638.38;2218239;26;2247;-68
2024/04/11 00:42:34;;;;;;;;;;;;;;;20.57;49.60;102637.59;2222217;26;2224;-68
2024/04/11 00:43:36;;;;;;;;;;;;;;;20.58;49.51;102639.13;2219741;26;2339;-68
2024/04/11 00:44:37;;;;;;;;;;;;;;;20.57;49.15;102637.59;2214086;26;2420;-68
2024/04/11 00:45:42;;;;;;;;;;;;;;;20.56;49.74;102636.84;2226075;26;2429;-67
2024/04/11 00:46:45;;;;;;;;;;;;;;;20.58;49.93;102627.59;2223333;26;2346;-67
2024/04/11 00:47:47;;;;;;;;;;;;;;;20.58;49.53;102633.38;2222973;26;2290;-67
2024/04/11 00:48:52;;;;;;;;;;;;;;;20.56;49.32;102638.94;2226579;26;2322;-67
2024/04/11 00:49:55;;;;;;;;;;;;;;;20.56;49.94;102630.31;2217914;26;2364;-69
2024/04/11 00:50:57;;;;;;;;;;;;;;;20.57;49.79;102637.59;2221690;26;2100;-69
2024/04/11 00:51:58;;;;;;;;;;;;;;;20.57;49.61;102637.59;2217789;26;2371;-68
2024/04/11 00:53:00;;;;;;;;;;;;;;;20.56;49.39;102630.31;2225991;26;2174;-67
2024/04/11 00:54:02;;;;;;;;;;;;;;;20.56;49.70;102631.09;2214580;26;2431;-67
2024/04/11 00:55:04;;;;;;;;;;;;;;;20.57;49.59;102635.50;2221635;26;2305;-68
2024/04/11 00:56:06;;;;;;;;;;;;;;;20.57;49.96;102631.84;2218703;26;2114;-67
2024/04/11 00:57:08;;;;;;;;;;;;;;;20.55;49.39;102631.66;2221726;26;2132;-68
2024/04/11 00:58:11;;;;;;;;;;;;;;;20.55;49.29;102625.91;2220415;26;2478;-68
2024/04/11 00:59:14;;;;;;;;;;;;;;;20.55;49.61;102635.31;2219263;26;2323;-67
2024/04/11 01:00:16;;;;;;;;;;;;;;;20.55;49.70;102631.66;2216591;26;6108;-67
2024/04/11 01:01:17;;;;;;;;;;;;;;;20.55;49.70;102640.28;2218402;26;2372;-68
2024/04/11 01:02:19;;;;;;;;;;;;;;;20.55;49.31;102628.78;2220075;26;2336;-67
2024/04/11 01:03:21;;;;;;;;;;;;;;;20.55;49.64;102641.06;2220860;26;2482;-67
2024/04/11 01:04:23;;;;;;;;;;;;;;;20.54;49.51;102633.03;2219094;26;2091;-68
2024/04/11 01:05:25;;;;;;;;;;;;;;;20.55;49.64;102635.31;2222422;26;2111;-67
2024/04/11 01:06:40;;;;;;;;;;;;;;;20.55;49.18;102629.56;2221846;26;2147;-68
2024/04/11 01:07:49;;;;;;;;;;;;;;;20.55;49.23;102628.78;2221151;26;2171;-68
2024/04/11 01:08:51;;;;;;;;;;;;;;;20.53;49.28;102628.66;2219163;26;2206;-68
2024/04/11 01:09:52;;;;;;;;;;;;;;;20.52;49.47;102625.00;2221525;26;2554;-68
2024/04/11 01:10:54;;;;;;;;;;;;;;;20.53;49.81;102631.53;2221806;26;2350;-68
2024/04/11 01:11:56;;;;;;;;;;;;;;;20.53;49.79;102637.28;2217140;26;2333;-67
2024/04/11 01:12:57;;;;;;;;;;;;;;;20.53;49.82;102640.16;2216765;26;2562;-67
2024/04/11 01:13:59;;;;;;;;;;;;;;;20.54;49.82;102635.91;2220233;26;2323;-68
2024/04/11 01:15:02;;;;;;;;;;;;;;;20.53;49.55;102638.03;2221127;26;2140;-67
2024/04/11 01:16:04;;;;;;;;;;;;;;;20.53;49.61;102637.28;2221353;26;2331;-68
2024/04/11 01:17:05;;;;;;;;;;;;;;;20.53;49.77;102631.53;2221442;26;2298;-68
2024/04/11 01:18:07;;;;;;;;;;;;;;;20.53;49.66;102632.28;2218585;26;2265;-68
2024/04/11 01:19:09;;;;;;;;;;;;;;;20.52;49.61;102630.75;2218677;26;2363;-68
2024/04/11 01:20:12;;;;;;;;;;;;;;;20.53;49.59;102631.53;2223596;26;2076;-67
2024/04/11 01:21:15;;;;;;;;;;;;;;;20.53;49.82;102631.53;2221722;26;2215;-67
2024/04/11 01:22:18;;;;;;;;;;;;;;;20.51;49.70;102624.25;2218355;26;2281;-68
2024/04/11 01:23:21;;;;;;;;;;;;;;;20.50;49.31;102622.75;2219546;26;2108;-68
2024/04/11 01:24:23;;;;;;;;;;;;;;;20.51;49.43;102623.50;2214668;26;2311;-67
2024/04/11 01:25:29;;;;;;;;;;;;;;;20.51;49.73;102624.25;2219762;26;2197;-67
2024/04/11 01:26:30;;;;;;;;;;;;;;;20.52;49.23;102630.75;2219530;26;2167;-67
2024/04/11 01:27:32;;;;;;;;;;;;;;;20.50;49.90;102627.72;2218639;26;2331;-68
2024/04/11 01:28:35;;;;;;;;;;;;;;;20.51;49.75;102629.25;2215404;26;2187;-68
2024/04/11 01:29:38;;;;;;;;;;;;;;;20.50;49.45;102625.63;2219502;26;2653;-68
2024/04/11 01:30:41;;;;;;;;;;;;;;;20.50;49.33;102633.47;2213764;26;5938;-62
2024/04/11 01:31:43;;;;;;;;;;;;;;;20.49;49.85;102632.72;2217785;26;2370;-67
2024/04/11 01:32:45;;;;;;;;;;;;;;;20.50;49.62;102633.47;2220645;26;2368;-70
2024/04/11 01:33:47;;;;;;;;;;;;;;;20.49;49.25;102624.09;2219467;26;2264;-71
2024/04/11 01:34:56;;;;;;;;;;;;;;;20.50;49.25;102628.50;2219470;26;2420;-71
2024/04/11 01:35:57;;;;;;;;;;;;;;;20.49;49.98;102621.22;2217896;26;2296;-71
2024/04/11 01:37:01;;;;;;;;;;;;;;;20.49;49.37;102614.69;2217468;26;2268;-72
2024/04/11 01:38:05;;;;;;;;;;;;;;;20.49;49.32;102617.59;2218785;26;2254;-70
2024/04/11 01:39:09;;;;;;;;;;;;;;;20.48;49.39;102619.72;2227643;26;2409;-71
2024/04/11 01:40:10;;;;;;;;;;;;;;;20.49;49.42;102626.22;2219312;26;2462;-72
2024/04/11 01:41:12;;;;;;;;;;;;;;;20.49;49.80;102620.47;2218197;26;2382;-71
2024/04/11 01:42:14;;;;;;;;;;;;;;;20.48;49.58;102624.72;2220450;26;2268;-71
2024/04/11 01:43:15;;;;;;;;;;;;;;;20.47;49.65;102626.81;2216466;26;2175;-71
2024/04/11 01:44:17;;;;;;;;;;;;;;;20.48;49.46;102625.47;2222070;26;2116;-71
2024/04/11 01:45:18;;;;;;;;;;;;;;;20.48;49.78;102622.59;2219360;26;2281;-71
2024/04/11 01:46:19;;;;;;;;;;;;;;;20.48;49.85;102625.47;2220914;26;2724;-71
2024/04/11 01:47:21;;;;;;;;;;;;;;;20.47;49.98;102626.81;2231111;26;2116;-71
2024/04/11 01:48:23;;;;;;;;;;;;;;;20.48;49.68;102624.72;2221707;26;2151;-72
2024/04/11 01:49:24;;;;;;;;;;;;;;;20.47;49.68;102621.06;2220710;26;2359;-71
2024/04/11 01:50:26;;;;;;;;;;;;;;;20.46;49.61;102622.44;2220720;26;2371;-72
2024/04/11 01:51:28;;;;;;;;;;;;;;;20.46;49.55;102622.44;2217759;26;2481;-70
2024/04/11 01:52:29;;;;;;;;;;;;;;;20.47;49.73;102621.06;2217540;26;2375;-71
2024/04/11 01:53:30;;;;;;;;;;;;;;;20.47;49.57;102626.81;2218374;26;2391;-72
2024/04/11 01:54:32;;;;;;;;;;;;;;;20.46;49.73;102622.44;2215053;26;2375;-71
2024/04/11 01:55:34;;;;;;;;;;;;;;;20.47;49.24;102629.69;2220966;26;2338;-71
2024/04/11 01:56:35;;;;;;;;;;;;;;;20.47;49.31;102629.69;2225264;26;2477;-71
2024/04/11 01:57:37;;;;;;;;;;;;;;;20.46;49.80;102636.81;2217778;26;2244;-72
2024/04/11 01:58:41;;;;;;;;;;;;;;;20.46;49.76;102628.19;2219783;26;2242;-71
2024/04/11 01:59:43;;;;;;;;;;;;;;;20.47;49.60;102635.44;2214335;26;2465;-71
2024/04/11 02:00:44;;;;;;;;;;;;;;;20.46;49.74;102633.94;2215752;26;5886;-71
2024/04/11 02:01:46;;;;;;;;;;;;;;;20.45;49.86;102638.16;2221499;26;2416;-72
2024/04/11 02:02:49;;;;;;;;;;;;;;;20.43;49.44;102632.28;2216696;26;2347;-71
2024/04/11 02:03:53;;;;;;;;;;;;;;;20.45;49.78;102631.66;2221149;26;2207;-71
2024/04/11 02:04:55;;;;;;;;;;;;;;;20.45;49.40;102625.91;2217941;26;2269;-71
2024/04/11 02:05:57;;;;;;;;;;;;;;;20.45;49.99;102628.78;2218216;26;2119;-71
2024/04/11 02:06:59;;;;;;;;;;;;;;;20.44;49.57;102630.91;2218449;26;2349;-71
2024/04/11 02:08:03;;;;;;;;;;;;;;;20.44;49.89;102625.16;2219219;26;2270;-71
2024/04/11 02:09:09;;;;;;;;;;;;;;;20.44;49.68;102630.16;2222180;26;2222;-71
2024/04/11 02:10:11;;;;;;;;;;;;;;;20.44;49.67;102625.16;2219225;26;2355;-71
2024/04/11 02:11:12;;;;;;;;;;;;;;;20.43;49.43;102632.28;2222288;26;2416;-71
2024/04/11 02:12:14;;;;;;;;;;;;;;;20.43;49.49;102634.38;2221689;26;2316;-71
2024/04/11 02:13:15;;;;;;;;;;;;;;;20.44;49.36;102635.91;2219316;26;2326;-72
2024/04/11 02:14:18;;;;;;;;;;;;;;;20.43;49.55;102629.41;2220464;26;2092;-71
2024/04/11 02:15:19;;;;;;;;;;;;;;;20.44;49.38;102638.78;2221938;26;2382;-72
2024/04/11 02:16:21;;;;;;;;;;;;;;;20.44;49.39;102639.53;2221072;26;2382;-72
2024/04/11 02:17:22;;;;;;;;;;;;;;;20.45;50.09;102637.41;2222034;26;2211;-71
2024/04/11 02:18:24;;;;;;;;;;;;;;;20.43;49.34;102640.16;2219772;26;2418;-71
2024/04/11 02:19:26;;;;;;;;;;;;;;;20.43;49.61;102631.50;2222140;26;2271;-71
2024/04/11 02:20:28;;;;;;;;;;;;;;;20.41;49.67;102629.25;2229073;26;2271;-71
2024/04/11 02:21:29;;;;;;;;;;;;;;;20.41;49.32;102629.25;2221069;26;2111;-71
2024/04/11 02:22:31;;;;;;;;;;;;;;;20.42;49.85;102633.63;2212759;26;2279;-71
2024/04/11 02:23:32;;;;;;;;;;;;;;;20.42;49.29;102639.41;2221794;26;2422;-71
2024/04/11 02:24:35;;;;;;;;;;;;;;;20.42;49.57;102632.88;2217361;26;2299;-71
2024/04/11 02:25:36;;;;;;;;;;;;;;;20.42;49.67;102639.41;2227621;26;2168;-71
2024/04/11 02:26:38;;;;;;;;;;;;;;;20.41;49.67;102635.00;2219737;26;2425;-72
2024/04/11 02:27:40;;;;;;;;;;;;;;;20.41;49.69;102637.13;2221324;26;2101;-71
2024/04/11 02:28:41;;;;;;;;;;;;;;;20.41;49.62;102632.13;2220296;26;2374;-71
2024/04/11 02:29:42;;;;;;;;;;;;;;;20.41;49.77;102637.88;2223387;26;2040;-71
2024/04/11 02:30:44;;;;;;;;;;;;;;;20.40;49.56;102630.59;2220493;26;5796;-71
2024/04/11 02:31:46;;;;;;;;;;;;;;;20.40;49.59;102630.59;2221605;26;2305;-71
2024/04/11 02:32:48;;;;;;;;;;;;;;;20.41;49.75;102629.25;2218658;26;2275;-71
2024/04/11 02:33:50;;;;;;;;;;;;;;;20.40;49.63;102629.84;2213331;26;2403;-71
2024/04/11 02:34:51;;;;;;;;;;;;;;;20.39;49.90;102631.97;2219737;26;2517;-71
2024/04/11 02:35:53;;;;;;;;;;;;;;;20.40;49.79;102630.59;2220304;26;2444;-71
2024/04/11 02:36:55;;;;;;;;;;;;;;;20.40;49.70;102639.25;2223218;26;2253;-72
2024/04/11 02:37:56;;;;;;;;;;;;;;;20.39;49.68;102634.09;2222609;26;2374;-72
2024/04/11 02:38:58;;;;;;;;;;;;;;;20.39;49.25;102631.22;2224369;26;2310;-71
2024/04/11 02:40:00;;;;;;;;;;;;;;;20.39;49.57;102626.22;2223346;26;2004;-71
2024/04/11 02:41:02;;;;;;;;;;;;;;;20.39;49.78;102631.97;2220069;26;2319;-71
2024/04/11 02:42:03;;;;;;;;;;;;;;;20.39;49.74;102629.09;2225761;26;2190;-71
2024/04/11 02:43:05;;;;;;;;;;;;;;;20.38;49.53;102633.34;2221217;26;2376;-72
2024/04/11 02:44:07;;;;;;;;;;;;;;;20.40;49.77;102632.72;2219932;26;2303;-72
2024/04/11 02:45:09;;;;;;;;;;;;;;;20.39;49.55;102631.22;2217792;26;2363;-71
2024/04/11 02:46:15;;;;;;;;;;;;;;;20.38;49.88;102621.06;2221574;26;2371;-72
2024/04/11 02:47:17;;;;;;;;;;;;;;;20.39;49.25;102634.84;2220693;26;2382;-72
2024/04/11 02:48:18;;;;;;;;;;;;;;;20.38;49.27;102626.81;2219326;26;2375;-71
2024/04/11 02:49:22;;;;;;;;;;;;;;;20.37;49.61;102631.81;2220917;26;2276;-72
2024/04/11 02:50:25;;;;;;;;;;;;;;;20.38;49.72;102626.81;2217785;26;2496;-71
2024/04/11 02:51:27;;;;;;;;;;;;;;;20.39;49.76;102628.34;2226279;26;2466;-71
2024/04/11 02:52:29;;;;;;;;;;;;;;;20.39;49.54;102628.34;2221692;26;2375;-71
2024/04/11 02:53:30;;;;;;;;;;;;;;;20.39;49.89;102637.75;2227207;26;2687;-72
2024/04/11 02:54:32;;;;;;;;;;;;;;;20.40;49.77;102633.47;2233163;26;2369;-71
2024/04/11 02:55:34;;;;;;;;;;;;;;;20.41;49.61;102632.13;2231179;26;2290;-71
2024/04/11 02:56:37;;;;;;;;;;;;;;;20.40;49.23;102630.59;2220511;26;2208;-71
2024/04/11 02:57:38;;;;;;;;;;;;;;;20.41;49.89;102626.38;2223249;26;2103;-71
2024/04/11 02:58:40;;;;;;;;;;;;;;;20.41;49.22;102623.50;2220377;26;2217;-71
2024/04/11 02:59:43;;;;;;;;;;;;;;;20.43;49.37;102635.16;2222923;26;2137;-72
2024/04/11 03:00:46;;;;;;;;;;;;;;;20.44;49.68;102633.03;2219708;26;5959;-71
2024/04/11 03:01:47;;;;;;;;;;;;;;;20.44;49.63;102633.78;2215806;26;2291;-71
2024/04/11 03:02:52;;;;;;;;;;;;;;;20.45;49.60;102631.66;2222829;26;2286;-71
2024/04/11 03:03:58;;;;;;;;;;;;;;;20.44;49.38;102628.03;2221262;26;2188;-71
2024/04/11 03:05:00;;;;;;;;;;;;;;;20.44;49.48;102630.91;2215197;26;2438;-71
2024/04/11 03:06:21;;;;;;;;;;;;;;;20.46;49.33;102628.19;2222222;26;2203;-71
2024/04/11 03:07:23;;;;;;;;;;;;;;;20.45;49.50;102626.66;2222891;26;2360;-71
2024/04/11 03:08:27;;;;;;;;;;;;;;;20.45;49.78;102620.91;2227430;26;2091;-72
2024/04/11 03:09:28;;;;;;;;;;;;;;;20.46;49.00;102630.31;2220695;26;2397;-72
2024/04/11 03:10:30;;;;;;;;;;;;;;;20.46;49.38;102631.06;2226427;26;2371;-71
2024/04/11 03:11:31;;;;;;;;;;;;;;;20.45;49.13;102626.66;2222305;26;2003;-71
2024/04/11 03:12:33;;;;;;;;;;;;;;;20.46;49.43;102621.69;2218178;26;2236;-70
2024/04/11 03:13:38;;;;;;;;;;;;;;;20.45;49.21;102629.53;2227586;26;2094;-72
2024/04/11 03:14:40;;;;;;;;;;;;;;;20.45;49.22;102632.41;2217897;26;2367;-72
2024/04/11 03:15:41;;;;;;;;;;;;;;;20.45;49.37;102632.41;2224905;26;2430;-71
2024/04/11 03:16:43;;;;;;;;;;;;;;;20.45;49.30;102626.66;2221089;26;2329;-71
2024/04/11 03:17:44;;;;;;;;;;;;;;;20.45;49.30;102626.66;2222120;26;2153;-71
2024/04/11 03:18:46;;;;;;;;;;;;;;;20.46;49.30;102628.19;2228209;26;2183;-71
2024/04/11 03:19:47;;;;;;;;;;;;;;;20.46;49.46;102628.19;2226539;26;2059;-71
2024/04/11 03:20:52;;;;;;;;;;;;;;;20.48;49.22;102622.59;2217529;26;2215;-71
2024/04/11 03:21:54;;;;;;;;;;;;;;;20.47;49.79;102623.94;2221416;26;2249;-71
2024/04/11 03:22:56;;;;;;;;;;;;;;;20.47;49.43;102628.94;2221963;26;2234;-71
2024/04/11 03:23:57;;;;;;;;;;;;;;;20.49;49.47;102626.22;2223950;26;2329;-72
2024/04/11 03:24:59;;;;;;;;;;;;;;;20.48;49.46;102625.47;2219019;26;2477;-71
2024/04/11 03:26:01;;;;;;;;;;;;;;;20.49;49.40;102624.09;2217017;26;2293;-72
2024/04/11 03:27:02;;;;;;;;;;;;;;;20.49;49.76;102626.97;2221209;26;2366;-72
2024/04/11 03:28:04;;;;;;;;;;;;;;;20.49;49.15;102632.72;2221652;26;2197;-72
2024/04/11 03:29:05;;;;;;;;;;;;;;;20.50;49.07;102628.50;2224516;26;2339;-72
2024/04/11 03:30:08;;;;;;;;;;;;;;;20.50;49.27;102631.38;2221791;26;5973;-71
2024/04/11 03:31:13;;;;;;;;;;;;;;;20.51;49.19;102623.50;2219263;26;2660;-71
2024/04/11 03:32:14;;;;;;;;;;;;;;;20.52;49.13;102625.00;2220224;26;2365;-72
2024/04/11 03:33:16;;;;;;;;;;;;;;;20.51;49.26;102630.00;2222015;26;2558;-71
2024/04/11 03:34:20;;;;;;;;;;;;;;;20.53;49.15;102625.78;2219784;26;2302;-71
2024/04/11 03:35:22;;;;;;;;;;;;;;;20.53;49.42;102625.78;2229815;26;2494;-71
2024/04/11 03:36:24;;;;;;;;;;;;;;;20.53;49.04;102625.78;2218848;26;2294;-71
2024/04/11 03:37:26;;;;;;;;;;;;;;;20.53;49.64;102620.00;2222888;26;2146;-72
2024/04/11 03:38:28;;;;;;;;;;;;;;;20.53;49.06;102620.00;2217967;26;2411;-72
2024/04/11 03:39:30;;;;;;;;;;;;;;;20.51;49.47;102612.72;2223758;26;2194;-71
2024/04/11 03:40:32;;;;;;;;;;;;;;;20.51;49.06;102618.47;2214506;26;2379;-72
2024/04/11 03:41:34;;;;;;;;;;;;;;;20.51;49.38;102612.72;2216817;26;2429;-71
2024/04/11 03:42:36;;;;;;;;;;;;;;;20.50;49.55;102616.97;2221111;26;2110;-71
2024/04/11 03:43:38;;;;;;;;;;;;;;;20.51;49.81;102612.72;2220374;26;2123;-71
2024/04/11 03:44:42;;;;;;;;;;;;;;;20.51;49.46;102618.47;2214073;26;2543;-71
2024/04/11 03:45:43;;;;;;;;;;;;;;;20.52;49.51;102619.22;2221197;26;2397;-72
2024/04/11 03:46:45;;;;;;;;;;;;;;;20.53;49.50;102623.66;2221874;26;2098;-71
2024/04/11 03:47:46;;;;;;;;;;;;;;;20.51;49.21;102617.72;2222236;26;2187;-71
2024/04/11 03:48:51;;;;;;;;;;;;;;;20.52;49.44;102625.00;2222915;26;2366;-71
2024/04/11 03:49:52;;;;;;;;;;;;;;;20.53;49.46;102622.91;2218788;26;2370;-72
2024/04/11 03:50:56;;;;;;;;;;;;;;;20.53;49.45;102620.00;2228086;26;2298;-71
2024/04/11 03:51:58;;;;;;;;;;;;;;;20.53;49.25;102628.66;2219736;26;2264;-71
2024/04/11 03:52:59;;;;;;;;;;;;;;;20.54;49.45;102627.28;2218405;26;2661;-71
2024/04/11 03:54:01;;;;;;;;;;;;;;;20.54;49.34;102625.16;2221282;26;2202;-71
2024/04/11 03:55:03;;;;;;;;;;;;;;;20.56;49.76;102624.53;2220135;26;2662;-71
2024/04/11 03:56:08;;;;;;;;;;;;;;;20.57;49.98;102623.19;2218566;26;2607;-71
2024/04/11 03:57:09;;;;;;;;;;;;;;;20.56;49.65;102633.19;2219369;26;2607;-71
2024/04/11 03:58:11;;;;;;;;;;;;;;;20.55;49.68;102626.69;2215738;26;2354;-71
2024/04/11 03:59:13;;;;;;;;;;;;;;;20.56;49.75;102624.53;2218282;26;2663;-71
2024/04/11 04:00:16;;;;;;;;;;;;;;;20.57;49.71;102626.06;2226616;26;5794;-71
2024/04/11 04:01:18;;;;;;;;;;;;;;;20.58;49.66;102624.72;2234004;26;2522;-72
2024/04/11 04:02:21;;;;;;;;;;;;;;;20.58;49.50;102630.47;2235420;26;2364;-72
2024/04/11 04:03:23;;;;;;;;;;;;;;;20.57;49.74;102626.06;2236232;26;1962;-71
2024/04/11 04:04:26;;;;;;;;;;;;;;;20.58;49.50;102627.59;2234150;26;2313;-71
2024/04/11 04:05:28;;;;;;;;;;;;;;;20.59;49.58;102629.09;2231621;26;2361;-72
2024/04/11 04:06:31;;;;;;;;;;;;;;;20.58;49.80;102627.59;2232347;26;2361;-72
2024/04/11 04:07:32;;;;;;;;;;;;;;;20.57;49.64;102626.06;2236845;26;2527;-71
2024/04/11 04:08:38;;;;;;;;;;;;;;;20.58;49.78;102639.13;2239493;26;2494;-71
2024/04/11 04:09:40;;;;;;;;;;;;;;;20.58;49.59;102639.13;2237083;26;2040;-72
2024/04/11 04:10:41;;;;;;;;;;;;;;;20.58;49.52;102639.88;2242555;26;2066;-71
2024/04/11 04:11:43;;;;;;;;;;;;;;;20.58;50.04;102633.38;2237137;26;1950;-71
2024/04/11 04:12:44;;;;;;;;;;;;;;;20.58;49.76;102634.13;2235420;26;2056;-71
2024/04/11 04:13:50;;;;;;;;;;;;;;;20.59;49.38;102634.88;2238170;26;2062;-72
2024/04/11 04:14:53;;;;;;;;;;;;;;;20.58;49.54;102639.13;2238007;26;2088;-72
2024/04/11 04:15:58;;;;;;;;;;;;;;;20.58;50.03;102639.13;2232719;26;2132;-71
2024/04/11 04:17:00;;;;;;;;;;;;;;;20.58;49.48;102633.38;2235831;26;2377;-71
2024/04/11 04:18:03;;;;;;;;;;;;;;;20.57;49.84;102638.38;2232941;26;2274;-72
2024/04/11 04:19:04;;;;;;;;;;;;;;;20.59;49.71;102640.63;2237428;26;2429;-71
2024/04/11 04:20:09;;;;;;;;;;;;;;;20.57;49.85;102638.38;2237529;26;2126;-72
2024/04/11 04:21:10;;;;;;;;;;;;;;;20.58;49.88;102630.47;2234679;26;2392;-71
2024/04/11 04:22:16;;;;;;;;;;;;;;;20.57;49.72;102637.59;2234997;26;2278;-71
2024/04/11 04:23:18;;;;;;;;;;;;;;;20.58;49.82;102639.13;2227680;26;2802;-71
2024/04/11 04:24:19;;;;;;;;;;;;;;;20.58;50.04;102634.13;2230562;26;2272;-71
2024/04/11 04:25:22;;;;;;;;;;;;;;;20.59;49.94;102637.75;2236540;26;2380;-72
2024/04/11 04:26:30;;;;;;;;;;;;;;;20.59;49.84;102646.38;2232894;26;2243;-72
2024/04/11 04:27:32;;;;;;;;;;;;;;;20.58;49.91;102639.88;2235916;26;2397;-71
2024/04/11 04:28:34;;;;;;;;;;;;;;;20.60;49.89;102647.91;2236590;26;2038;-71
2024/04/11 04:29:37;;;;;;;;;;;;;;;20.59;50.13;102641.41;2235346;26;2503;-72
2024/04/11 04:30:44;;;;;;;;;;;;;;;20.60;50.07;102650.78;2233199;26;5927;-71
2024/04/11 04:31:49;;;;;;;;;;;;;;;20.60;49.69;102648.66;2235466;26;2303;-72
2024/04/11 04:32:51;;;;;;;;;;;;;;;20.61;49.84;102643.66;2237185;26;2225;-71
2024/04/11 04:33:53;;;;;;;;;;;;;;;20.62;50.28;102656.69;2236391;26;2165;-71
2024/04/11 04:34:57;;;;;;;;;;;;;;;20.61;50.10;102650.16;2236820;26;2548;-72
2024/04/11 04:35:58;;;;;;;;;;;;;;;20.61;50.10;102653.03;2235857;26;2305;-72
2024/04/11 04:37:00;;;;;;;;;;;;;;;20.62;50.22;102648.06;2234852;26;2215;-71
2024/04/11 04:38:02;;;;;;;;;;;;;;;20.62;50.11;102650.94;2236998;26;2209;-71
2024/04/11 04:39:05;;;;;;;;;;;;;;;20.62;49.94;102656.69;2232803;26;2290;-71
2024/04/11 04:40:07;;;;;;;;;;;;;;;20.63;50.09;102658.19;2237126;26;2170;-71
2024/04/11 04:41:09;;;;;;;;;;;;;;;20.62;49.99;102648.06;2234705;26;2431;-71
2024/04/11 04:42:12;;;;;;;;;;;;;;;20.62;50.07;102648.06;2234887;26;2356;-72
2024/04/11 04:43:14;;;;;;;;;;;;;;;20.61;49.88;102647.28;2237501;26;2187;-71
2024/04/11 04:44:16;;;;;;;;;;;;;;;20.61;49.73;102650.16;2232146;26;2456;-71
2024/04/11 04:45:19;;;;;;;;;;;;;;;20.61;49.90;102658.78;2229484;26;2713;-70
2024/04/11 04:46:21;;;;;;;;;;;;;;;20.58;50.06;102647.75;2234895;26;2694;-70
2024/04/11 04:47:28;;;;;;;;;;;;;;;20.10;48.23;102640.59;2237771;26;2654;-70
2024/04/11 04:48:30;;;;;;;;;;;;;;;20.08;48.29;102638.31;2237479;26;2651;-67
2024/04/11 04:49:32;;;;;;;;;;;;;;;20.20;49.33;102637.72;2237430;26;2670;-67
2024/04/11 04:50:33;;;;;;;;;;;;;;;20.35;49.26;102640.31;2235363;26;2567;-67
2024/04/11 04:51:38;;;;;;;;;;;;;;;20.43;49.38;102638.03;2232757;26;2612;-69
2024/04/11 04:52:43;;;;;;;;;;;;;;;20.50;49.23;102640.00;2234175;26;2745;-67
2024/04/11 04:53:44;;;;;;;;;;;;;;;20.51;49.15;102640.75;2230506;26;2269;-67
2024/04/11 04:54:46;;;;;;;;;;;;;;;20.53;49.68;102648.78;2237368;26;2243;-67
2024/04/11 04:55:48;;;;;;;;;;;;;;;20.55;49.18;102641.06;2237281;26;2040;-67
2024/04/11 04:56:53;;;;;;;;;;;;;;;20.55;49.25;102646.81;2241480;26;2125;-67
2024/04/11 04:57:55;;;;;;;;;;;;;;;20.56;49.01;102641.81;2237345;26;2177;-67
2024/04/11 04:58:58;;;;;;;;;;;;;;;20.58;49.54;102642.00;2233256;26;2288;-67
2024/04/11 05:00:00;;;;;;;;;;;;;;;20.59;48.83;102643.50;2231223;26;2015;-67
2024/04/11 05:01:02;;;;;;;;;;;;;;;20.60;48.97;102647.91;2232479;26;5657;-67
2024/04/11 05:02:04;;;;;;;;;;;;;;;20.60;48.74;102642.16;2237276;26;2133;-67
2024/04/11 05:03:10;;;;;;;;;;;;;;;20.61;49.27;102649.41;2236263;26;2131;-67
2024/04/11 05:04:13;;;;;;;;;;;;;;;20.61;49.04;102643.66;2233420;26;2083;-67
2024/04/11 05:05:18;;;;;;;;;;;;;;;20.62;48.93;102639.44;2229264;26;2157;-67
2024/04/11 05:06:20;;;;;;;;;;;;;;;20.63;49.11;102643.81;2237276;26;2334;-67
2024/04/11 05:07:24;;;;;;;;;;;;;;;20.62;48.78;102642.31;2237632;26;2185;-67
2024/04/11 05:08:25;;;;;;;;;;;;;;;20.64;49.29;102642.44;2235725;26;2267;-67
2024/04/11 05:09:27;;;;;;;;;;;;;;;20.64;48.92;102639.56;2231998;26;2674;-67
2024/04/11 05:10:28;;;;;;;;;;;;;;;20.64;49.14;102645.34;2231554;26;2403;-67
2024/04/11 05:11:31;;;;;;;;;;;;;;;20.64;48.85;102642.44;2237251;26;2073;-68
2024/04/11 05:12:43;;;;;;;;;;;;;;;20.65;49.13;102635.31;2237689;26;2201;-67
2024/04/11 05:13:45;;;;;;;;;;;;;;;20.64;49.11;102636.69;2236210;26;2128;-67
2024/04/11 05:14:52;;;;;;;;;;;;;;;20.65;48.64;102638.19;2236480;26;2089;-67
2024/04/11 05:15:57;;;;;;;;;;;;;;;20.65;48.70;102629.56;2235377;26;2353;-67
2024/04/11 05:16:59;;;;;;;;;;;;;;;20.65;48.85;102632.44;2238242;26;2181;-67
2024/04/11 05:18:01;;;;;;;;;;;;;;;20.64;49.02;102631.69;2227053;26;2296;-67
2024/04/11 05:19:07;;;;;;;;;;;;;;;20.64;49.21;102631.69;2237351;26;2147;-67
2024/04/11 05:20:17;;;;;;;;;;;;;;;20.64;48.79;102628.81;2229288;26;2111;-68
2024/04/11 05:21:23;;;;;;;;;;;;;;;20.64;49.40;102631.69;2236023;26;2307;-67
2024/04/11 05:22:26;;;;;;;;;;;;;;;20.64;49.18;102628.81;2236506;26;2284;-67
2024/04/11 05:23:32;;;;;;;;;;;;;;;20.65;48.80;102632.44;2238224;26;2233;-67
2024/04/11 05:24:34;;;;;;;;;;;;;;;20.64;49.14;102625.94;2232668;26;2130;-67
2024/04/11 05:25:36;;;;;;;;;;;;;;;20.64;48.96;102625.19;2238202;26;2189;-67
2024/04/11 05:26:37;;;;;;;;;;;;;;;20.65;48.86;102623.81;2236840;26;1999;-68